Time;durP1;ratioP1;P1;durP2;ratioP2;P2;SDS_P1;SDS_P2;PMS_P1;PMS_P2;Temp;Humidity;BMP_temperature;BMP_pressure;BME280_temperature;BME280_humidity;BME280_pressure;Samples;Min_cycle;Max_cycle;Signal;HPM_P1;HPM_P2
2022/01/06 00:02:25;;;;;;;5.38;2.90;;;;;;;;;;5044729;28;20063;-59
2022/01/06 00:04:50;;;;;;;12.40;3.45;;;;;;;;;;5040618;28;20461;-59
2022/01/06 00:07:16;;;;;;;5.72;2.35;;;;;;;;;;5038942;28;20068;-59
2022/01/06 00:09:42;;;;;;;14.95;2.20;;;;;;;;;;5038110;28;20035;-58
2022/01/06 00:12:12;;;;;;;6.78;1.88;;;;;;;;;;5042627;28;20483;-59
2022/01/06 00:15:07;;;;;;;4.55;1.15;;;;;;;;;;5039102;28;20033;-59
2022/01/06 00:17:53;;;;;;;3.78;1.30;;;;;;;;;;5038912;28;20094;-58
2022/01/06 00:23:20;;;;;;;8.00;1.27;;;;;;;;;;5040817;28;20120;-58
2022/01/06 00:25:47;;;;;;;4.00;1.10;;;;;;;;;;5040083;28;20032;-58
2022/01/06 00:28:12;;;;;;;11.32;1.42;;;;;;;;;;5037989;28;20032;-58
2022/01/06 00:30:38;;;;;;;2.40;0.80;;;;;;;;;;5042305;28;20036;-58
2022/01/06 00:33:03;;;;;;;8.07;1.35;;;;;;;;;;5037094;28;20103;-58
2022/01/06 00:35:29;;;;;;;2.97;1.05;;;;;;;;;;5040987;28;20132;-58
2022/01/06 00:37:54;;;;;;;5.35;1.10;;;;;;;;;;5034537;28;20354;-58
2022/01/06 00:40:20;;;;;;;7.93;1.38;;;;;;;;;;5035219;28;20479;-58
2022/01/06 00:42:45;;;;;;;8.88;1.90;;;;;;;;;;5037990;28;20041;-58
2022/01/06 00:45:11;;;;;;;2.55;0.77;;;;;;;;;;5039232;28;20033;-57
2022/01/06 00:47:37;;;;;;;5.85;1.15;;;;;;;;;;5039982;28;20493;-58
2022/01/06 00:50:03;;;;;;;4.45;0.75;;;;;;;;;;5035729;28;20029;-58
2022/01/06 00:52:28;;;;;;;2.45;1.00;;;;;;;;;;5038104;28;20032;-58
2022/01/06 00:54:54;;;;;;;2.55;0.77;;;;;;;;;;5039584;28;20025;-59
2022/01/06 00:57:19;;;;;;;14.02;1.40;;;;;;;;;;5033666;28;20037;-58
2022/01/06 00:59:45;;;;;;;5.68;1.33;;;;;;;;;;5069062;28;20136;-58
2022/01/06 01:02:10;;;;;;;4.72;0.70;;;;;;;;;;5036528;28;20033;-58
2022/01/06 01:04:36;;;;;;;12.95;1.10;;;;;;;;;;5041242;28;20573;-58
2022/01/06 01:07:02;;;;;;;2.10;0.45;;;;;;;;;;5040405;28;20155;-58
2022/01/06 01:09:27;;;;;;;4.50;0.65;;;;;;;;;;5037784;28;20028;-58
2022/01/06 01:11:53;;;;;;;2.65;0.57;;;;;;;;;;5038437;28;20037;-58
2022/01/06 01:14:27;;;;;;;2.38;0.75;;;;;;;;;;5038150;28;20029;-57
2022/01/06 01:16:56;;;;;;;4.35;0.88;;;;;;;;;;5041471;28;20488;-57
2022/01/06 01:19:22;;;;;;;2.17;0.63;;;;;;;;;;5040209;28;20037;-57
2022/01/06 01:21:48;;;;;;;11.57;1.60;;;;;;;;;;5037538;28;20167;-59
2022/01/06 01:24:14;;;;;;;7.53;1.00;;;;;;;;;;5042025;28;20104;-58
2022/01/06 01:26:40;;;;;;;3.00;0.70;;;;;;;;;;5039473;28;20425;-58
2022/01/06 01:29:09;;;;;;;5.82;0.93;;;;;;;;;;5045051;28;20135;-58
2022/01/06 01:31:43;;;;;;;6.13;0.63;;;;;;;;;;5038925;28;20495;-58
2022/01/06 01:34:09;;;;;;;2.55;1.00;;;;;;;;;;5033536;28;20045;-58
2022/01/06 01:36:36;;;;;;;3.80;0.68;;;;;;;;;;5043733;28;20045;-58
2022/01/06 01:39:02;;;;;;;10.77;1.17;;;;;;;;;;5041832;28;20032;-58
2022/01/06 01:41:28;;;;;;;7.60;0.82;;;;;;;;;;5034279;28;20037;-57
2022/01/06 01:43:55;;;;;;;1.88;0.73;;;;;;;;;;5036099;28;20083;-58
2022/01/06 01:46:28;;;;;;;5.10;0.73;;;;;;;;;;5037041;28;20417;-58
2022/01/06 01:51:35;;;;;;;4.10;0.93;;;;;;;;;;5039139;28;20032;-58
2022/01/06 01:54:01;;;;;;;1.67;0.60;;;;;;;;;;5040261;28;20037;-58
2022/01/06 01:56:27;;;;;;;4.47;0.70;;;;;;;;;;5035948;28;20814;-58
2022/01/06 01:58:52;;;;;;;4.13;0.88;;;;;;;;;;5039957;28;20033;-58
2022/01/06 02:01:18;;;;;;;2.88;0.63;;;;;;;;;;5037029;28;20053;-57
2022/01/06 02:03:43;;;;;;;3.78;0.70;;;;;;;;;;5041761;28;20507;-58
2022/01/06 02:06:09;;;;;;;12.60;1.10;;;;;;;;;;5045587;28;20037;-57
2022/01/06 02:08:34;;;;;;;5.95;1.20;;;;;;;;;;5039225;28;20044;-57
2022/01/06 02:11:00;;;;;;;1.13;0.75;;;;;;;;;;5044256;28;20466;-57
2022/01/06 02:13:29;;;;;;;3.70;0.80;;;;;;;;;;5043827;28;20017;-58
2022/01/06 02:15:56;;;;;;;2.67;0.50;;;;;;;;;;5043133;28;20041;-57
2022/01/06 02:18:21;;;;;;;1.70;0.47;;;;;;;;;;5037290;28;20575;-58
2022/01/06 02:20:47;;;;;;;6.63;1.10;;;;;;;;;;5041262;28;20045;-58
2022/01/06 02:23:12;;;;;;;5.35;0.75;;;;;;;;;;5041364;28;20302;-58
2022/01/06 02:25:38;;;;;;;4.70;0.50;;;;;;;;;;5038074;28;20080;-57
2022/01/06 02:28:04;;;;;;;3.38;0.70;;;;;;;;;;5037179;28;20396;-57
2022/01/06 02:30:33;;;;;;;4.40;0.70;;;;;;;;;;5041071;28;20468;-58
2022/01/06 02:33:01;;;;;;;2.58;0.70;;;;;;;;;;5045709;28;20036;-58
2022/01/06 02:35:27;;;;;;;3.90;0.63;;;;;;;;;;5040627;28;20049;-58
2022/01/06 02:37:53;;;;;;;0.85;0.45;;;;;;;;;;5035941;28;20460;-58
2022/01/06 02:40:21;;;;;;;3.60;0.90;;;;;;;;;;5040618;28;20354;-58
2022/01/06 02:42:51;;;;;;;0.88;0.63;;;;;;;;;;5039507;28;20147;-58
2022/01/06 02:45:17;;;;;;;12.48;1.27;;;;;;;;;;5039937;28;20400;-58
2022/01/06 02:47:44;;;;;;;0.98;0.32;;;;;;;;;;5040744;28;20401;-58
2022/01/06 02:50:10;;;;;;;5.95;0.68;;;;;;;;;;5037587;28;20484;-58
2022/01/06 02:52:36;;;;;;;4.47;0.47;;;;;;;;;;5041387;28;20164;-58
2022/01/06 02:55:04;;;;;;;2.60;0.65;;;;;;;;;;5040985;28;20115;-58
2022/01/06 02:57:30;;;;;;;4.60;0.88;;;;;;;;;;5044220;28;20051;-58
2022/01/06 02:59:55;;;;;;;0.88;0.77;;;;;;;;;;5041284;28;20992;-58
2022/01/06 03:02:21;;;;;;;3.92;0.50;;;;;;;;;;5042447;28;20069;-58
2022/01/06 03:04:46;;;;;;;3.50;0.77;;;;;;;;;;5043557;28;20120;-58
2022/01/06 03:07:12;;;;;;;3.17;0.50;;;;;;;;;;5040913;28;20033;-59
2022/01/06 03:09:40;;;;;;;6.97;0.95;;;;;;;;;;5043586;28;20479;-58
2022/01/06 03:12:18;;;;;;;4.13;0.60;;;;;;;;;;5041361;28;20036;-59
2022/01/06 03:14:43;;;;;;;4.28;0.47;;;;;;;;;;5038098;28;20025;-59
2022/01/06 03:17:09;;;;;;;0.85;0.40;;;;;;;;;;5071887;28;20040;-58
2022/01/06 03:19:34;;;;;;;3.35;1.17;;;;;;;;;;5040180;28;20087;-58
2022/01/06 03:21:59;;;;;;;9.82;0.73;;;;;;;;;;5040570;28;20049;-58
2022/01/06 03:24:25;;;;;;;5.50;1.65;;;;;;;;;;5038103;28;20452;-58
2022/01/06 03:26:51;;;;;;;5.95;1.00;;;;;;;;;;5043930;28;20036;-58
2022/01/06 03:29:16;;;;;;;6.47;1.63;;;;;;;;;;5036901;28;20021;-58
2022/01/06 03:31:42;;;;;;;2.20;0.43;;;;;;;;;;5040675;28;20090;-59
2022/01/06 03:34:08;;;;;;;4.40;0.77;;;;;;;;;;5046015;28;20094;-58
2022/01/06 03:36:34;;;;;;;4.47;0.90;;;;;;;;;;5038601;28;20472;-58
2022/01/06 03:39:00;;;;;;;5.55;0.77;;;;;;;;;;5036057;28;20052;-59
2022/01/06 03:41:25;;;;;;;0.98;0.43;;;;;;;;;;5042198;28;20033;-59
2022/01/06 03:43:51;;;;;;;3.33;0.93;;;;;;;;;;5037675;28;20454;-58
2022/01/06 03:46:16;;;;;;;2.05;0.65;;;;;;;;;;5034062;28;20028;-58
2022/01/06 03:48:42;;;;;;;1.77;0.50;;;;;;;;;;5042501;28;20400;-58
2022/01/06 03:51:07;;;;;;;3.42;0.82;;;;;;;;;;5039820;28;20090;-58
2022/01/06 03:53:32;;;;;;;6.90;0.85;;;;;;;;;;5042365;28;20412;-58
2022/01/06 03:55:58;;;;;;;3.72;0.82;;;;;;;;;;5039545;28;20037;-58
2022/01/06 03:58:23;;;;;;;7.22;1.42;;;;;;;;;;5036930;28;20021;-58
2022/01/06 04:00:49;;;;;;;2.90;0.75;;;;;;;;;;5040882;28;20029;-58
2022/01/06 04:03:14;;;;;;;4.43;0.80;;;;;;;;;;5041549;28;20044;-58
2022/01/06 04:05:40;;;;;;;4.35;0.70;;;;;;;;;;5041433;28;20048;-57
2022/01/06 04:08:06;;;;;;;6.13;0.80;;;;;;;;;;5036567;28;20484;-58
2022/01/06 04:10:31;;;;;;;3.40;0.80;;;;;;;;;;5036024;28;20469;-59
2022/01/06 04:12:57;;;;;;;4.55;0.60;;;;;;;;;;5043139;28;20059;-58
2022/01/06 04:15:25;;;;;;;3.08;0.80;;;;;;;;;;5038837;28;20055;-58
2022/01/06 04:17:51;;;;;;;4.63;0.75;;;;;;;;;;5036341;28;20045;-58
2022/01/06 04:20:17;;;;;;;8.05;1.05;;;;;;;;;;5042658;28;20051;-58
2022/01/06 04:22:43;;;;;;;5.32;0.80;;;;;;;;;;5035489;28;20114;-58
2022/01/06 04:25:08;;;;;;;6.93;0.73;;;;;;;;;;5038264;28;20029;-58
2022/01/06 04:27:34;;;;;;;2.60;0.30;;;;;;;;;;5040130;28;20041;-58
2022/01/06 04:30:00;;;;;;;8.68;0.90;;;;;;;;;;5070825;28;20064;-58
2022/01/06 04:32:26;;;;;;;4.75;0.40;;;;;;;;;;5041747;28;20597;-58
2022/01/06 04:34:52;;;;;;;5.20;1.02;;;;;;;;;;5038746;28;20095;-58
2022/01/06 04:37:17;;;;;;;8.30;3.03;;;;;;;;;;5037666;28;20037;-57
2022/01/06 04:39:43;;;;;;;6.78;0.63;;;;;;;;;;5038734;28;20040;-58
2022/01/06 04:42:08;;;;;;;6.55;0.70;;;;;;;;;;5037499;28;20526;-58
2022/01/06 04:44:34;;;;;;;0.93;0.30;;;;;;;;;;5040730;28;20033;-58
2022/01/06 04:47:00;;;;;;;5.13;0.80;;;;;;;;;;5044381;28;20544;-58
2022/01/06 04:49:26;;;;;;;6.03;0.93;;;;;;;;;;5042029;28;20119;-58
2022/01/06 04:51:52;;;;;;;1.67;0.50;;;;;;;;;;5042343;28;20132;-59
2022/01/06 04:54:18;;;;;;;9.77;1.05;;;;;;;;;;5038955;28;20033;-58
2022/01/06 04:56:43;;;;;;;8.10;0.85;;;;;;;;;;5040225;28;20611;-58
2022/01/06 04:59:09;;;;;;;9.27;1.77;;;;;;;;;;5040055;28;20042;-58
2022/01/06 05:01:37;;;;;;;3.60;0.47;;;;;;;;;;5033730;28;20447;-58
2022/01/06 05:04:02;;;;;;;4.63;0.63;;;;;;;;;;5042141;28;20496;-57
2022/01/06 05:06:28;;;;;;;2.55;0.60;;;;;;;;;;5042300;28;20037;-57
2022/01/06 05:08:54;;;;;;;6.22;0.52;;;;;;;;;;5036752;28;20038;-57
2022/01/06 05:11:20;;;;;;;1.92;0.40;;;;;;;;;;5041077;28;20056;-58
2022/01/06 05:13:46;;;;;;;8.38;0.98;;;;;;;;;;5035262;28;20590;-57
2022/01/06 05:16:12;;;;;;;1.17;0.35;;;;;;;;;;5040297;28;20056;-58
2022/01/06 05:18:38;;;;;;;2.55;0.60;;;;;;;;;;5037889;28;20150;-58
2022/01/06 05:21:07;;;;;;;1.60;0.52;;;;;;;;;;5037597;28;20623;-58
2022/01/06 05:23:34;;;;;;;4.57;0.30;;;;;;;;;;5042503;28;20049;-59
2022/01/06 05:25:59;;;;;;;10.10;0.77;;;;;;;;;;5036950;28;20064;-58
2022/01/06 05:28:25;;;;;;;11.02;0.75;;;;;;;;;;5040068;28;20017;-58
2022/01/06 05:30:52;;;;;;;5.90;0.68;;;;;;;;;;5034273;28;20115;-58
2022/01/06 05:33:18;;;;;;;4.15;0.77;;;;;;;;;;5035595;28;20044;-58
2022/01/06 05:35:43;;;;;;;11.02;0.68;;;;;;;;;;5038123;28;20049;-58
2022/01/06 05:38:09;;;;;;;6.13;0.65;;;;;;;;;;5048943;28;20419;-58
2022/01/06 05:40:34;;;;;;;3.35;0.70;;;;;;;;;;5040919;28;20033;-58
2022/01/06 05:43:00;;;;;;;5.95;0.82;;;;;;;;;;5044224;28;20518;-58
2022/01/06 05:45:26;;;;;;;2.88;0.57;;;;;;;;;;5042477;28;20033;-58
2022/01/06 05:47:52;;;;;;;7.60;0.55;;;;;;;;;;5045715;28;20052;-58
2022/01/06 05:50:18;;;;;;;2.42;0.38;;;;;;;;;;5040778;28;20024;-58
2022/01/06 05:52:44;;;;;;;6.53;0.73;;;;;;;;;;5040796;28;20025;-58
2022/01/06 05:55:10;;;;;;;6.07;0.70;;;;;;;;;;5044863;28;20083;-59
2022/01/06 05:57:36;;;;;;;12.98;0.82;;;;;;;;;;5041605;28;20033;-58
2022/01/06 06:00:03;;;;;;;5.43;0.60;;;;;;;;;;5042161;28;20040;-58
2022/01/06 06:02:28;;;;;;;6.97;0.65;;;;;;;;;;5043261;28;20059;-59
2022/01/06 06:04:54;;;;;;;2.45;0.30;;;;;;;;;;5046401;28;20036;-56
2022/01/06 06:07:20;;;;;;;7.95;1.48;;;;;;;;;;5041635;28;20024;-58
2022/01/06 06:09:46;;;;;;;7.43;0.77;;;;;;;;;;5040064;28;20432;-57
2022/01/06 06:12:12;;;;;;;7.50;1.00;;;;;;;;;;5040754;28;20557;-58
2022/01/06 06:14:37;;;;;;;13.45;0.88;;;;;;;;;;5045301;28;22431;-58
2022/01/06 06:17:03;;;;;;;5.90;0.90;;;;;;;;;;5042377;28;20034;-58
2022/01/06 06:19:29;;;;;;;10.73;0.80;;;;;;;;;;5040096;28;20484;-58
2022/01/06 06:21:54;;;;;;;8.68;1.48;;;;;;;;;;5041629;28;20112;-58
2022/01/06 06:24:22;;;;;;;8.88;1.17;;;;;;;;;;5039275;28;20028;-58
2022/01/06 06:26:49;;;;;;;3.83;0.55;;;;;;;;;;5039523;28;20029;-57
2022/01/06 06:29:15;;;;;;;12.65;1.45;;;;;;;;;;5042145;28;20176;-58
2022/01/06 06:31:41;;;;;;;3.08;0.80;;;;;;;;;;5040471;28;20064;-56
2022/01/06 06:34:06;;;;;;;10.18;0.88;;;;;;;;;;5043986;28;20860;-57
2022/01/06 06:36:32;;;;;;;10.70;0.90;;;;;;;;;;5038989;28;20048;-58
2022/01/06 06:38:57;;;;;;;9.93;0.77;;;;;;;;;;5042636;28;20061;-58
2022/01/06 06:41:23;;;;;;;12.65;0.98;;;;;;;;;;5037674;28;20032;-58
2022/01/06 06:43:48;;;;;;;8.07;1.20;;;;;;;;;;5041643;28;20045;-58
2022/01/06 06:46:14;;;;;;;4.93;0.82;;;;;;;;;;5044074;28;20043;-58
2022/01/06 06:48:39;;;;;;;7.10;0.68;;;;;;;;;;5039604;28;20425;-58
2022/01/06 06:51:05;;;;;;;13.85;1.50;;;;;;;;;;5039659;28;20063;-57
2022/01/06 06:53:30;;;;;;;12.25;1.00;;;;;;;;;;5042110;28;20105;-57
2022/01/06 06:55:56;;;;;;;13.77;1.00;;;;;;;;;;5036624;28;20508;-58
2022/01/06 06:58:22;;;;;;;8.25;1.10;;;;;;;;;;5041045;28;20102;-58
2022/01/06 07:00:48;;;;;;;15.10;1.77;;;;;;;;;;5040562;28;20082;-58
2022/01/06 07:03:13;;;;;;;7.40;0.82;;;;;;;;;;5038423;28;20029;-58
2022/01/06 07:05:39;;;;;;;4.35;0.60;;;;;;;;;;5040719;28;20033;-56
2022/01/06 07:08:04;;;;;;;6.38;1.00;;;;;;;;;;5040678;28;20528;-57
2022/01/06 07:10:30;;;;;;;6.70;0.50;;;;;;;;;;5044874;28;20028;-58
2022/01/06 07:12:55;;;;;;;7.60;0.80;;;;;;;;;;5040893;28;20032;-58
2022/01/06 07:15:21;;;;;;;3.88;0.40;;;;;;;;;;5045994;28;20202;-58
2022/01/06 07:17:46;;;;;;;7.13;1.08;;;;;;;;;;5039842;28;20094;-58
2022/01/06 07:20:12;;;;;;;4.55;0.70;;;;;;;;;;5044035;28;20029;-58
2022/01/06 07:22:38;;;;;;;5.93;0.80;;;;;;;;;;5041480;28;20029;-57
2022/01/06 07:25:04;;;;;;;9.32;1.20;;;;;;;;;;5043719;28;20078;-58
2022/01/06 07:27:30;;;;;;;4.18;0.57;;;;;;;;;;5044111;28;20024;-58
2022/01/06 07:29:56;;;;;;;6.60;0.80;;;;;;;;;;5042301;28;20029;-58
2022/01/06 07:32:21;;;;;;;5.78;0.90;;;;;;;;;;5045452;28;20032;-59
2022/01/06 07:34:47;;;;;;;6.25;0.68;;;;;;;;;;5045853;28;20175;-59
2022/01/06 07:37:13;;;;;;;11.45;1.35;;;;;;;;;;5039288;28;20124;-58
2022/01/06 07:39:38;;;;;;;13.85;1.05;;;;;;;;;;5042100;28;20064;-58
2022/01/06 07:42:05;;;;;;;5.80;0.50;;;;;;;;;;5043776;28;20033;-59
2022/01/06 07:44:30;;;;;;;7.13;0.60;;;;;;;;;;5038165;28;20033;-59
2022/01/06 07:46:56;;;;;;;7.00;0.63;;;;;;;;;;5041859;28;20576;-59
2022/01/06 07:49:22;;;;;;;6.55;1.15;;;;;;;;;;5039715;28;20025;-58
2022/01/06 07:51:47;;;;;;;5.25;0.60;;;;;;;;;;5044483;28;20035;-58
2022/01/06 07:54:12;;;;;;;6.85;1.63;;;;;;;;;;5039971;28;20435;-59
2022/01/06 07:56:38;;;;;;;8.18;0.98;;;;;;;;;;5037535;28;20033;-59
2022/01/06 07:59:03;;;;;;;5.47;0.60;;;;;;;;;;5041146;28;20492;-59
2022/01/06 08:01:29;;;;;;;3.17;0.60;;;;;;;;;;5046227;28;20041;-59
2022/01/06 08:03:54;;;;;;;14.10;0.90;;;;;;;;;;5044413;28;20553;-59
2022/01/06 08:06:20;;;;;;;7.72;0.90;;;;;;;;;;5039713;28;20032;-59
2022/01/06 08:08:46;;;;;;;5.28;0.60;;;;;;;;;;5037026;28;21046;-59
2022/01/06 08:11:12;;;;;;;6.78;0.88;;;;;;;;;;5038689;28;20035;-59
2022/01/06 08:13:39;;;;;;;2.92;0.75;;;;;;;;;;5039987;28;20415;-59
2022/01/06 08:16:05;;;;;;;3.78;0.47;;;;;;;;;;5041551;28;20032;-58
2022/01/06 08:18:31;;;;;;;8.68;0.73;;;;;;;;;;5037196;28;20037;-58
2022/01/06 08:20:57;;;;;;;6.15;0.90;;;;;;;;;;5033978;28;20033;-59
2022/01/06 08:23:22;;;;;;;6.55;1.58;;;;;;;;;;5036704;28;20075;-58
2022/01/06 08:25:48;;;;;;;2.00;1.00;;;;;;;;;;5046780;28;20041;-58
2022/01/06 08:28:14;;;;;;;3.08;0.32;;;;;;;;;;5042797;28;20056;-57
2022/01/06 08:30:40;;;;;;;3.70;0.90;;;;;;;;;;5040861;28;20033;-58
2022/01/06 08:33:05;;;;;;;5.82;1.42;;;;;;;;;;5038570;28;20071;-58
2022/01/06 08:35:31;;;;;;;4.53;0.88;;;;;;;;;;5039405;28;20507;-58
2022/01/06 08:37:57;;;;;;;4.43;0.75;;;;;;;;;;5037325;28;20053;-52
2022/01/06 08:40:24;;;;;;;4.55;0.80;;;;;;;;;;5043919;28;20074;-58
2022/01/06 08:42:50;;;;;;;6.70;0.75;;;;;;;;;;5039752;28;20037;-58
2022/01/06 08:45:16;;;;;;;5.45;1.65;;;;;;;;;;5045925;28;20415;-58
2022/01/06 08:47:43;;;;;;;3.25;0.28;;;;;;;;;;5040143;28;20410;-57
2022/01/06 08:50:09;;;;;;;4.63;0.70;;;;;;;;;;5038021;28;20563;-58
2022/01/06 08:52:35;;;;;;;2.85;0.60;;;;;;;;;;5042622;28;20033;-58
2022/01/06 08:55:01;;;;;;;4.78;0.85;;;;;;;;;;5043955;28;20025;-54
2022/01/06 08:57:26;;;;;;;4.85;1.17;;;;;;;;;;5038343;28;20526;-55
2022/01/06 08:59:52;;;;;;;4.70;0.50;;;;;;;;;;5043486;28;20033;-55
2022/01/06 09:02:18;;;;;;;7.13;0.57;;;;;;;;;;5044142;28;20027;-55
2022/01/06 09:04:43;;;;;;;5.93;0.65;;;;;;;;;;5041351;28;20033;-54
2022/01/06 09:07:09;;;;;;;5.70;0.85;;;;;;;;;;5040808;28;20048;-55
2022/01/06 09:09:34;;;;;;;12.60;1.05;;;;;;;;;;5043987;28;20036;-54
2022/01/06 09:12:00;;;;;;;4.03;0.95;;;;;;;;;;5042921;28;20099;-53
2022/01/06 09:14:26;;;;;;;4.07;0.70;;;;;;;;;;5040301;28;20037;-53
2022/01/06 09:16:53;;;;;;;6.68;0.75;;;;;;;;;;5040445;28;20079;-54
2022/01/06 09:19:19;;;;;;;4.72;0.88;;;;;;;;;;5050612;28;20033;-53
2022/01/06 09:21:44;;;;;;;2.28;0.50;;;;;;;;;;5047973;28;20416;-54
2022/01/06 09:24:10;;;;;;;8.43;0.70;;;;;;;;;;5043127;28;20029;-53
2022/01/06 09:26:37;;;;;;;12.63;0.65;;;;;;;;;;5037330;28;20072;-54
2022/01/06 09:29:04;;;;;;;2.65;0.60;;;;;;;;;;5037573;28;20033;-57
2022/01/06 09:31:31;;;;;;;5.57;0.50;;;;;;;;;;5040318;28;20028;-57
2022/01/06 09:33:57;;;;;;;3.47;0.57;;;;;;;;;;5045126;28;20031;-58
2022/01/06 09:36:22;;;;;;;3.78;0.50;;;;;;;;;;5043815;28;20049;-59
2022/01/06 09:38:48;;;;;;;4.68;0.60;;;;;;;;;;5043288;28;20079;-59
2022/01/06 09:41:14;;;;;;;2.47;0.90;;;;;;;;;;5043677;28;20052;-59
2022/01/06 09:43:41;;;;;;;0.85;0.35;;;;;;;;;;5048043;28;20059;-59
2022/01/06 09:46:08;;;;;;;3.20;0.47;;;;;;;;;;5044013;28;20029;-58
2022/01/06 09:48:36;;;;;;;6.20;1.10;;;;;;;;;;5042651;28;20020;-58
2022/01/06 09:51:03;;;;;;;1.42;0.30;;;;;;;;;;5040073;28;20040;-57
2022/01/06 09:53:28;;;;;;;0.77;0.35;;;;;;;;;;5039801;28;20496;-58
2022/01/06 09:55:54;;;;;;;1.48;0.35;;;;;;;;;;5044068;28;20028;-53
2022/01/06 09:58:28;;;;;;;6.22;0.50;;;;;;;;;;5050043;28;20125;-58
2022/01/06 10:00:56;;;;;;;1.55;0.30;;;;;;;;;;5041544;28;20029;-59
2022/01/06 10:03:32;;;;;;;1.85;0.30;;;;;;;;;;5043490;28;20449;-57
2022/01/06 10:06:21;;;;;;;1.95;0.25;;;;;;;;;;5039881;28;20119;-57
2022/01/06 10:08:59;;;;;;;0.57;0.57;;;;;;;;;;5042144;28;20752;-58
2022/01/06 10:11:27;;;;;;;1.88;0.40;;;;;;;;;;5039669;28;20032;-57
2022/01/06 10:13:55;;;;;;;3.95;0.50;;;;;;;;;;5039945;28;20028;-57
2022/01/06 10:16:22;;;;;;;1.73;0.38;;;;;;;;;;5043742;28;20032;-58
2022/01/06 10:19:02;;;;;;;0.30;0.20;;;;;;;;;;5040249;28;20037;-58
2022/01/06 10:21:34;;;;;;;0.20;0.20;;;;;;;;;;5043047;28;20044;-58
2022/01/06 10:24:12;;;;;;;0.80;0.38;;;;;;;;;;5036472;28;20560;-57
2022/01/06 10:26:58;;;;;;;2.00;0.38;;;;;;;;;;5042259;28;20033;-56
2022/01/06 10:29:29;;;;;;;2.05;0.20;;;;;;;;;;5047047;28;20108;-56
2022/01/06 10:32:10;;;;;;;0.10;0.10;;;;;;;;;;5049113;28;20508;-56
2022/01/06 10:34:39;;;;;;;0.70;0.20;;;;;;;;;;5039164;28;20037;-57
2022/01/06 10:37:16;;;;;;;1.25;0.30;;;;;;;;;;5043770;28;20045;-57
2022/01/06 10:39:43;;;;;;;6.05;0.30;;;;;;;;;;5043959;28;20115;-56
2022/01/06 10:42:11;;;;;;;0.35;0.22;;;;;;;;;;5047714;28;20232;-57
2022/01/06 10:44:53;;;;;;;0.20;0.20;;;;;;;;;;5044601;28;20059;-57
2022/01/06 10:47:34;;;;;;;1.85;0.30;;;;;;;;;;5045070;28;20025;-56
2022/01/06 10:50:11;;;;;;;2.63;0.15;;;;;;;;;;5043329;28;20152;-56
2022/01/06 10:52:39;;;;;;;0.20;0.20;;;;;;;;;;5047254;28;20037;-56
2022/01/06 10:55:10;;;;;;;2.20;0.22;;;;;;;;;;5042928;28;20507;-58
2022/01/06 10:57:36;;;;;;;0.82;0.20;;;;;;;;;;5046073;28;20126;-57
2022/01/06 11:00:03;;;;;;;0.40;0.22;;;;;;;;;;5041753;28;20064;-57
2022/01/06 11:02:29;;;;;;;4.70;0.30;;;;;;;;;;5041962;28;20033;-55
2022/01/06 11:04:54;;;;;;;0.88;0.52;;;;;;;;;;5045899;28;20400;-56
2022/01/06 11:07:20;;;;;;;8.35;0.75;;;;;;;;;;5042038;28;20586;-55
2022/01/06 11:09:48;;;;;;;4.38;1.00;;;;;;;;;;5045451;28;20523;-54
2022/01/06 11:12:28;;;;;;;9.80;1.00;;;;;;;;;;5077639;28;20032;-56
2022/01/06 11:14:54;;;;;;;8.38;1.27;;;;;;;;;;5045342;28;20040;-56
2022/01/06 11:17:23;;;;;;;4.45;0.63;;;;;;;;;;5041247;28;20052;-55
2022/01/06 11:19:49;;;;;;;13.10;2.28;;;;;;;;;;5038855;28;20122;-56
2022/01/06 11:22:22;;;;;;;13.40;1.27;;;;;;;;;;5044326;28;20040;-55
2022/01/06 11:24:51;;;;;;;;;;;;;;;;;;5045605;28;20064;-56
2022/01/06 11:27:17;;;;;;;18.63;1.52;;;;;;;;;;5043660;28;19917;-57
2022/01/06 11:29:43;;;;;;;16.05;2.28;;;;;;;;;;5043005;28;20493;-58
2022/01/06 11:32:23;;;;;;;28.20;3.40;;;;;;;;;;5044459;28;20033;-57
2022/01/06 11:35:02;;;;;;;27.05;3.97;;;;;;;;;;5037328;28;20113;-56
2022/01/06 11:37:48;;;;;;;25.20;2.13;;;;;;;;;;5073556;28;20459;-57
2022/01/06 11:40:27;;;;;;;20.63;1.95;;;;;;;;;;5044730;28;20060;-57
2022/01/06 11:42:54;;;;;;;17.85;2.67;;;;;;;;;;5046644;28;20128;-57
2022/01/06 11:45:20;;;;;;;14.95;1.70;;;;;;;;;;5044287;28;20029;-57
2022/01/06 11:47:46;;;;;;;14.70;2.03;;;;;;;;;;5043221;28;20032;-57
2022/01/06 11:50:24;;;;;;;10.50;1.38;;;;;;;;;;5039541;28;20029;-58
2022/01/06 11:52:59;;;;;;;17.52;1.60;;;;;;;;;;5042516;28;20033;-57
2022/01/06 11:55:33;;;;;;;17.83;2.20;;;;;;;;;;5029532;28;20388;-56
2022/01/06 11:58:22;;;;;;;20.83;1.83;;;;;;;;;;5040475;28;20032;-58
2022/01/06 12:01:05;;;;;;;21.58;2.60;;;;;;;;;;5041468;28;20040;-57
2022/01/06 12:03:43;;;;;;;19.67;2.40;;;;;;;;;;5043991;28;20028;-58
2022/01/06 12:06:21;;;;;;;19.63;2.53;;;;;;;;;;5050374;28;20032;-57
2022/01/06 12:08:46;;;;;;;22.02;2.45;;;;;;;;;;5040642;28;20231;-57
2022/01/06 12:11:21;;;;;;;21.35;2.30;;;;;;;;;;5042038;28;20286;-57
2022/01/06 12:13:47;;;;;;;22.80;1.92;;;;;;;;;;5045646;28;20035;-57
2022/01/06 12:16:32;;;;;;;24.55;3.05;;;;;;;;;;5041113;28;20376;-57
2022/01/06 12:19:00;;;;;;;21.63;2.22;;;;;;;;;;5043013;28;20044;-58
2022/01/06 12:21:26;;;;;;;20.52;2.78;;;;;;;;;;5044387;28;20036;-57
2022/01/06 12:24:06;;;;;;;16.33;1.98;;;;;;;;;;5048748;28;20056;-57
2022/01/06 12:26:33;;;;;;;17.67;2.80;;;;;;;;;;5039122;28;20174;-59
2022/01/06 12:28:59;;;;;;;25.20;3.30;;;;;;;;;;5044047;28;20029;-58
2022/01/06 12:31:30;;;;;;;12.32;1.90;;;;;;;;;;5041808;28;20025;-57
2022/01/06 12:34:01;;;;;;;25.02;2.83;;;;;;;;;;5045861;28;20499;-58
2022/01/06 12:36:38;;;;;;;27.98;3.05;;;;;;;;;;5040789;28;20045;-58
2022/01/06 12:39:18;;;;;;;20.73;2.55;;;;;;;;;;5044517;28;20415;-57
2022/01/06 12:41:44;;;;;;;29.63;3.30;;;;;;;;;;5043349;28;20064;-58
2022/01/06 12:44:10;;;;;;;22.10;2.20;;;;;;;;;;5043095;28;20466;-58
2022/01/06 12:46:43;;;;;;;25.80;2.45;;;;;;;;;;5043857;28;20497;-58
2022/01/06 12:49:10;;;;;;;25.13;2.95;;;;;;;;;;5044267;28;20033;-58
2022/01/06 12:51:40;;;;;;;30.42;3.75;;;;;;;;;;5042529;28;20098;-58
2022/01/06 12:54:17;;;;;;;33.58;4.72;;;;;;;;;;5038546;28;20403;-58
2022/01/06 12:56:49;;;;;;;22.60;3.43;;;;;;;;;;5043243;28;20104;-58
2022/01/06 13:02:13;;;;;;;26.77;2.95;;;;;;;;;;5038155;28;20535;-58
2022/01/06 13:04:47;;;;;;;13.45;2.70;;;;;;;;;;5042354;28;20479;-58
2022/01/06 13:07:14;;;;;;;15.32;2.90;;;;;;;;;;5042663;28;20035;-56
2022/01/06 13:09:41;;;;;;;29.83;4.28;;;;;;;;;;5036159;28;20028;-58
2022/01/06 13:12:09;;;;;;;21.38;2.72;;;;;;;;;;5041304;28;20370;-58
2022/01/06 13:14:36;;;;;;;19.10;2.10;;;;;;;;;;5044161;28;20039;-57
2022/01/06 13:17:06;;;;;;;22.52;2.40;;;;;;;;;;5038781;28;20036;-57
2022/01/06 13:19:31;;;;;;;17.33;2.38;;;;;;;;;;5036262;28;20462;-58
2022/01/06 13:22:02;;;;;;;8.60;1.75;;;;;;;;;;5035839;28;20037;-56
2022/01/06 13:24:34;;;;;;;22.50;2.22;;;;;;;;;;5041441;28;20032;-58
2022/01/06 13:27:08;;;;;;;10.47;1.33;;;;;;;;;;5040904;28;20104;-59
2022/01/06 13:29:36;;;;;;;24.70;3.35;;;;;;;;;;5035586;28;20305;-58
2022/01/06 13:32:08;;;;;;;19.08;2.17;;;;;;;;;;5040377;28;20029;-58
2022/01/06 13:34:41;;;;;;;13.43;2.20;;;;;;;;;;5038469;28;20029;-58
2022/01/06 13:37:19;;;;;;;18.55;3.72;;;;;;;;;;5038303;28;20055;-59
2022/01/06 13:39:51;;;;;;;13.82;1.48;;;;;;;;;;5039352;28;20024;-58
2022/01/06 13:42:26;;;;;;;17.42;2.38;;;;;;;;;;5072910;28;20040;-59
2022/01/06 13:44:57;;;;;;;14.43;1.70;;;;;;;;;;5041306;28;20511;-58
2022/01/06 13:48:02;;;;;;;17.73;3.30;;;;;;;;;;5037515;28;20499;-58
2022/01/06 13:53:36;;;;;;;27.20;2.67;;;;;;;;;;5044265;28;20035;-58
2022/01/06 13:56:20;;;;;;;26.52;1.98;;;;;;;;;;5041907;28;20024;-58
2022/01/06 13:58:50;;;;;;;13.45;3.90;;;;;;;;;;5041141;28;20025;-58
2022/01/06 14:01:19;;;;;;;10.77;1.95;;;;;;;;;;5049769;28;20028;-58
2022/01/06 14:03:45;;;;;;;25.83;2.80;;;;;;;;;;5045015;28;20107;-58
2022/01/06 14:06:14;;;;;;;10.30;1.80;;;;;;;;;;5045513;28;20515;-58
2022/01/06 14:08:40;;;;;;;18.20;2.85;;;;;;;;;;5042390;28;20036;-57
2022/01/06 14:11:12;;;;;;;19.30;3.20;;;;;;;;;;5046424;28;20742;-58
2022/01/06 14:13:38;;;;;;;;;;;;;;;;;;5047590;28;20048;-58
2022/01/06 14:16:05;;;;;;;30.63;3.78;;;;;;;;;;5047498;28;19917;-58
2022/01/06 14:18:31;;;;;;;21.85;2.63;;;;;;;;;;5036461;28;20040;-57
2022/01/06 14:20:57;;;;;;;31.52;3.50;;;;;;;;;;5077122;28;20491;-57
2022/01/06 14:23:24;;;;;;;28.02;3.22;;;;;;;;;;5047516;28;20109;-57
2022/01/06 14:25:49;;;;;;;14.25;2.90;;;;;;;;;;5047291;28;20037;-57
2022/01/06 14:28:15;;;;;;;27.08;3.78;;;;;;;;;;5045116;28;20024;-58
2022/01/06 14:30:41;;;;;;;20.85;3.72;;;;;;;;;;5043086;28;20082;-57
2022/01/06 14:33:07;;;;;;;30.80;4.78;;;;;;;;;;5045372;28;20048;-58
2022/01/06 14:35:34;;;;;;;25.20;3.53;;;;;;;;;;5044072;28;20036;-57
2022/01/06 14:38:00;;;;;;;13.25;2.95;;;;;;;;;;5041004;28;20052;-58
2022/01/06 14:40:25;;;;;;;22.25;3.40;;;;;;;;;;5039128;28;20029;-57
2022/01/06 14:42:51;;;;;;;17.30;2.35;;;;;;;;;;5044732;28;20400;-58
2022/01/06 14:45:17;;;;;;;13.50;2.83;;;;;;;;;;5052162;28;20040;-57
2022/01/06 14:47:42;;;;;;;11.65;1.85;;;;;;;;;;5044956;28;20036;-57
2022/01/06 14:50:10;;;;;;;26.15;2.85;;;;;;;;;;5040318;28;20041;-57
2022/01/06 14:52:40;;;;;;;21.48;2.67;;;;;;;;;;5041533;28;20390;-58
2022/01/06 14:55:06;;;;;;;14.57;2.83;;;;;;;;;;5044517;28;20391;-56
2022/01/06 14:57:32;;;;;;;16.70;1.80;;;;;;;;;;5043727;28;20045;-58